createdAt,value
2023-01-30T00:00:56.825Z,5.50
2023-01-30T00:03:32.380Z,4.54
2023-01-30T00:06:00.480Z,4.32
2023-01-30T00:08:36.308Z,5.37
2023-01-30T00:11:15.603Z,5.89
2023-01-30T00:13:51.330Z,5.07
2023-01-30T00:16:29.054Z,4.23
2023-01-30T00:19:05.843Z,4.40
2023-01-30T00:21:41.351Z,5.29
2023-01-30T00:24:09.273Z,5.89
2023-01-30T00:26:45.240Z,5.18
2023-01-30T00:29:29.844Z,4.27
2023-01-30T00:32:08.889Z,4.62
2023-01-30T00:35:23.038Z,5.59
2023-01-30T00:38:12.702Z,5.76
2023-01-30T00:40:57.528Z,4.68
2023-01-30T00:43:57.312Z,4.15
2023-01-30T00:46:52.262Z,5.20
2023-01-30T00:49:25.922Z,5.78
2023-01-30T00:54:54.859Z,3.98
2023-01-30T00:57:22.351Z,4.48
2023-01-30T01:00:00.363Z,5.60
2023-01-30T01:02:31.155Z,5.49
2023-01-30T01:04:59.223Z,4.59
2023-01-30T01:07:31.954Z,3.93
2023-01-30T01:10:03.646Z,4.46
2023-01-30T01:12:31.202Z,5.43
2023-01-30T01:15:01.933Z,5.60
2023-01-30T01:17:32.977Z,4.70
2023-01-30T01:20:32.703Z,3.96
2023-01-30T01:23:00.483Z,4.65
2023-01-30T01:25:27.678Z,5.60
2023-01-30T01:27:56.791Z,5.22
2023-01-30T01:30:27.366Z,4.42
2023-01-30T01:33:17.422Z,3.82
2023-01-30T01:35:52.332Z,4.35
2023-01-30T01:38:25.545Z,5.37
2023-01-30T01:44:09.463Z,4.37
2023-01-30T01:46:49.222Z,3.75
2023-01-30T01:49:32.188Z,3.91
2023-01-30T01:52:16.687Z,5.06
2023-01-30T01:55:25.956Z,5.49
2023-01-30T01:58:25.441Z,4.38
2023-01-30T02:01:12.359Z,3.63
2023-01-30T02:03:46.665Z,4.07
2023-01-30T02:06:32.886Z,5.16
2023-01-30T02:09:09.481Z,4.81
2023-01-30T02:12:06.942Z,3.94
2023-01-30T02:14:58.970Z,4.15
2023-01-30T02:17:37.798Z,5.08
2023-01-30T02:21:10.707Z,4.83
2023-01-30T02:24:20.405Z,3.74
2023-01-30T02:27:26.820Z,4.33
2023-01-30T02:31:07.056Z,5.34
2023-01-30T02:34:20.032Z,4.22
2023-01-30T02:37:25.346Z,3.57
2023-01-30T02:40:40.113Z,4.66
2023-01-30T02:44:04.197Z,4.85
2023-01-30T02:47:21.815Z,3.79
2023-01-30T02:50:33.140Z,3.76
2023-01-30T02:53:06.621Z,4.87
2023-01-30T02:55:46.998Z,4.95
2023-01-30T02:58:42.282Z,4.08
2023-01-30T03:02:08.185Z,3.43
2023-01-30T03:05:04.405Z,4.09
2023-01-30T03:08:12.269Z,4.58
2023-01-30T03:11:06.204Z,4.19
2023-01-30T03:14:19.970Z,3.55
2023-01-30T03:20:08.090Z,4.10
2023-01-30T03:22:59.564Z,4.59
2023-01-30T03:25:37.733Z,4.76
2023-01-30T03:28:13.008Z,4.09
2023-01-30T03:31:18.972Z,3.35
2023-01-30T03:37:01.676Z,4.64
2023-01-30T03:39:29.372Z,4.38
2023-01-30T03:49:06.732Z,4.13
2023-01-30T03:51:47.979Z,4.70
2023-01-30T03:54:28.580Z,4.41
2023-01-30T03:57:19.172Z,3.55
2023-01-30T03:59:52.333Z,3.29
2023-01-30T04:02:28.583Z,3.86
2023-01-30T04:05:09.255Z,4.49
2023-01-30T04:07:37.746Z,4.37
2023-01-30T04:13:03.207Z,3.34
2023-01-30T04:15:42.169Z,3.89
2023-01-30T04:18:47.885Z,4.42
2023-01-30T04:21:51.782Z,4.66
2023-01-30T04:24:38.907Z,4.05
2023-01-30T04:30:50.346Z,3.50
2023-01-30T04:34:04.571Z,4.08
2023-01-30T04:36:35.800Z,4.36
2023-01-30T04:39:28.862Z,4.29
2023-01-30T04:46:00.976Z,4.42
2023-01-30T04:55:13.178Z,4.69
2023-01-30T05:04:48.099Z,4.33
2023-01-30T05:11:01.284Z,4.49
2023-01-30T05:13:57.381Z,4.60
2023-01-30T05:16:52.650Z,4.51
2023-01-30T05:19:54.312Z,4.76
2023-01-30T05:22:51.372Z,4.76
2023-01-30T05:25:39.165Z,4.93
2023-01-30T05:31:43.420Z,5.08
2023-01-30T05:34:54.644Z,5.16
2023-01-30T05:41:06.339Z,3.86
2023-01-30T05:44:06.094Z,4.47
2023-01-30T05:53:41.280Z,5.12
2023-01-30T05:56:50.481Z,5.15
2023-01-30T06:03:23.547Z,5.40
2023-01-30T06:15:53.086Z,5.51
2023-01-30T06:18:24.361Z,5.47
2023-01-30T06:21:04.803Z,5.58
2023-01-30T06:23:54.805Z,5.51
2023-01-30T06:30:00.179Z,5.58
2023-01-30T06:35:51.181Z,5.36
2023-01-30T06:38:23.303Z,5.52
2023-01-30T06:41:20.605Z,5.71
2023-01-30T06:44:11.859Z,5.58
2023-01-30T06:46:49.230Z,5.59
2023-01-30T06:49:26.864Z,5.63
2023-01-30T06:52:05.047Z,5.79
2023-01-30T06:58:17.414Z,6.00
2023-01-30T07:00:53.079Z,6.21
2023-01-30T07:03:21.647Z,6.30
2023-01-30T07:09:13.395Z,4.90
2023-01-30T07:11:47.372Z,5.52
2023-01-30T07:14:14.558Z,5.99
2023-01-30T07:16:49.931Z,6.27
2023-01-30T07:19:22.420Z,6.46
2023-01-30T07:22:09.243Z,6.75
2023-01-30T07:24:39.786Z,6.81
2023-01-30T07:27:11.745Z,6.55
2023-01-30T07:36:58.193Z,7.16
2023-01-30T07:39:40.918Z,6.02
2023-01-30T07:42:14.200Z,5.46
2023-01-30T07:48:26.260Z,6.11
2023-01-30T07:57:08.030Z,6.31
2023-01-30T07:59:55.052Z,6.33
2023-01-30T08:02:38.971Z,6.31
2023-01-30T08:05:25.114Z,6.31
2023-01-30T08:29:43.265Z,7.33
2023-01-30T08:32:11.139Z,7.44
2023-01-30T08:51:25.732Z,7.93
2023-01-30T09:06:17.223Z,6.94
2023-01-30T09:09:06.457Z,6.36
2023-01-30T09:15:23.885Z,7.90
2023-01-30T09:18:19.925Z,6.60
2023-01-30T09:21:15.410Z,6.94
2023-01-30T09:23:46.722Z,8.19
2023-01-30T09:26:15.506Z,7.84
2023-01-30T09:28:42.661Z,6.82
2023-01-30T09:31:10.204Z,6.72
2023-01-30T09:33:37.943Z,7.72
2023-01-30T09:36:05.514Z,8.64
2023-01-30T09:38:32.834Z,8.41
2023-01-30T09:41:00.005Z,7.25
2023-01-30T09:43:38.295Z,6.78
2023-01-30T09:46:11.288Z,7.90
2023-01-30T09:48:59.397Z,9.14
2023-01-30T09:51:39.908Z,8.54
2023-01-30T09:54:36.172Z,7.29
2023-01-30T09:57:24.535Z,7.10
2023-01-30T10:00:32.065Z,8.60
2023-01-30T10:03:08.550Z,8.47
2023-01-30T10:05:44.854Z,7.24
2023-01-30T10:08:24.477Z,6.92
2023-01-30T10:14:36.249Z,8.44
2023-01-30T10:17:34.114Z,7.26
2023-01-30T13:10:41.724Z,8.88
2023-01-30T13:17:34.807Z,9.17
2023-01-30T13:21:10.068Z,9.35
2023-01-30T13:24:27.175Z,9.87
2023-01-30T13:27:21.301Z,9.75
2023-01-30T13:29:51.926Z,8.92
2023-01-30T13:33:01.187Z,8.57
2023-01-30T13:35:43.313Z,8.93
2023-01-30T13:38:20.956Z,9.19
2023-01-30T13:40:57.076Z,9.34
2023-01-30T13:44:22.233Z,9.50
2023-01-30T13:47:20.697Z,9.53
2023-01-30T13:50:24.197Z,9.58
2023-01-30T13:53:32.917Z,9.55
2023-01-30T13:57:10.079Z,9.54
2023-01-30T14:00:04.644Z,9.39
2023-01-30T14:03:24.071Z,9.51
2023-01-30T14:05:51.589Z,9.52
2023-01-30T14:08:27.434Z,9.62
2023-01-30T14:10:57.150Z,9.69
2023-01-30T14:13:26.178Z,9.82
2023-01-30T14:15:57.284Z,9.90
2023-01-30T14:18:50.652Z,9.35
2023-01-30T14:21:29.476Z,8.38
2023-01-30T14:24:04.646Z,8.66
2023-01-30T14:27:23.023Z,9.01
2023-01-30T14:29:54.920Z,9.21
2023-01-30T14:32:22.152Z,9.36
2023-01-30T14:35:16.805Z,9.47
2023-01-30T14:37:53.199Z,9.61
2023-01-30T14:40:23.242Z,9.74
2023-01-30T14:43:14.329Z,9.89
2023-01-30T14:45:51.082Z,9.93
2023-01-30T14:48:41.351Z,10.01
2023-01-30T14:51:21.084Z,9.96
2023-01-30T14:53:53.728Z,9.73
2023-01-30T14:56:40.665Z,8.72
2023-01-30T14:59:29.896Z,8.31
2023-01-30T15:02:12.055Z,8.74
2023-01-30T15:04:56.234Z,9.17
2023-01-30T15:07:28.324Z,9.38
2023-01-30T15:10:03.647Z,9.49
2023-01-30T15:12:46.426Z,9.46
2023-01-30T15:15:56.284Z,9.52
2023-01-30T15:19:07.331Z,9.44
2023-01-30T15:22:12.016Z,9.41
2023-01-30T15:25:36.356Z,9.38
2023-01-30T15:28:48.852Z,9.34
2023-01-30T15:31:37.779Z,9.43
2023-01-30T15:34:47.171Z,9.44
2023-01-30T15:37:41.440Z,9.51
2023-01-30T15:40:28.532Z,9.51
2023-01-30T15:43:00.114Z,9.60
2023-01-30T15:46:31.289Z,9.63
2023-01-30T15:56:50.031Z,9.26
2023-01-30T15:59:41.585Z,9.47
2023-01-30T16:02:50.710Z,9.69
2023-01-30T16:05:26.943Z,9.30
2023-01-30T16:07:56.964Z,8.35
2023-01-30T16:10:36.905Z,7.67
2023-01-30T16:13:05.853Z,7.94
2023-01-30T16:15:57.707Z,8.35
2023-01-30T16:18:34.333Z,8.64
2023-01-30T16:21:29.942Z,8.95
2023-01-30T17:18:31.601Z,8.55
2023-01-30T17:20:21.545Z,8.48
2023-01-30T17:23:17.007Z,8.59
2023-01-30T17:25:54.751Z,8.67
2023-01-30T17:28:42.002Z,8.76
2023-01-30T17:31:12.753Z,8.72
2023-01-30T17:33:41.266Z,8.82
2023-01-30T17:36:25.347Z,8.97
2023-01-30T17:38:52.769Z,8.98
2023-01-30T17:41:29.740Z,9.08
2023-01-30T17:43:58.335Z,9.25
2023-01-30T17:46:39.767Z,9.30
2023-01-30T17:49:13.705Z,9.37
2023-01-30T17:51:44.940Z,9.35
2023-01-30T17:54:19.228Z,9.41
2023-01-30T17:57:01.089Z,9.43
2023-01-30T17:59:32.727Z,9.49
2023-01-30T18:02:00.923Z,9.46
2023-01-30T18:04:37.330Z,9.52
2023-01-30T18:07:13.561Z,9.63
2023-01-30T18:09:44.966Z,9.50
2023-01-30T18:12:15.747Z,9.41
2023-01-30T18:14:44.521Z,9.32
2023-01-30T18:17:13.425Z,9.24
2023-01-30T18:19:40.935Z,9.18
2023-01-30T18:22:11.431Z,9.11
2023-01-30T18:24:43.267Z,9.08
2023-01-30T18:27:12.872Z,9.07
2023-01-30T18:29:40.025Z,9.07
2023-01-30T18:32:08.862Z,9.02
2023-01-30T18:34:40.335Z,8.94
2023-01-30T18:37:09.585Z,8.93
2023-01-30T18:39:37.858Z,9.00
2023-01-30T18:42:07.705Z,9.02
2023-01-30T18:44:36.276Z,8.99
2023-01-30T18:47:05.348Z,8.99
2023-01-30T18:49:38.825Z,9.04
2023-01-30T18:52:07.252Z,9.09
2023-01-30T18:54:37.247Z,9.15
2023-01-30T18:57:05.061Z,9.15
2023-01-30T18:59:32.480Z,9.11
2023-01-30T19:02:19.969Z,9.04
2023-01-30T19:04:48.524Z,9.03
2023-01-30T19:07:16.871Z,9.08
2023-01-30T19:09:45.754Z,9.10
2023-01-30T19:12:34.646Z,9.13
2023-01-30T19:15:07.843Z,9.12
2023-01-30T19:17:35.514Z,9.14
2023-01-30T19:20:10.795Z,9.13
2023-01-30T19:22:43.617Z,9.10
2023-01-30T19:25:13.650Z,9.06
2023-01-30T19:27:43.374Z,9.07
2023-01-30T19:30:12.702Z,9.08
2023-01-30T19:32:41.185Z,9.08
2023-01-30T19:35:09.535Z,9.07
2023-01-30T19:37:39.914Z,9.01
2023-01-30T19:43:10.398Z,8.78
2023-01-30T19:45:42.521Z,8.76
2023-01-30T19:48:14.707Z,8.73
2023-01-30T19:50:43.698Z,8.77
2023-01-30T19:53:12.528Z,8.87
2023-01-30T19:55:41.971Z,8.93
2023-01-30T19:58:10.822Z,8.98
2023-01-30T20:01:03.134Z,9.06
2023-01-30T20:03:36.387Z,9.14
2023-01-30T20:06:20.025Z,9.17
2023-01-30T20:08:49.784Z,9.08
2023-01-30T20:11:19.221Z,9.08
2023-01-30T20:13:48.727Z,9.12
2023-01-30T20:16:31.286Z,9.18
2023-01-30T20:19:04.861Z,9.25
2023-01-30T20:21:35.724Z,9.27
2023-01-30T20:24:18.860Z,9.32
2023-01-30T20:26:48.389Z,9.30
2023-01-30T20:29:21.758Z,9.33
2023-01-30T20:31:55.242Z,9.40
2023-01-30T20:34:22.625Z,9.46
2023-01-30T20:36:49.980Z,9.39
2023-01-30T20:39:22.308Z,9.39
2023-01-30T20:41:49.802Z,9.45
2023-01-30T20:44:18.146Z,9.47
2023-01-30T20:46:49.875Z,9.43
2023-01-30T20:49:19.469Z,9.45
2023-01-30T20:51:50.093Z,9.51
2023-01-30T20:54:24.341Z,9.58
2023-01-30T20:57:12.313Z,9.58
2023-01-30T20:59:43.287Z,9.59
2023-01-30T21:02:16.115Z,9.58
2023-01-30T21:04:46.241Z,9.59
2023-01-30T21:07:13.457Z,9.65
2023-01-30T21:09:41.947Z,9.64
2023-01-30T21:12:13.142Z,9.55
2023-01-30T21:14:44.102Z,9.49
2023-01-30T21:17:11.568Z,9.45
2023-01-30T21:19:41.973Z,9.46
2023-01-30T21:22:10.750Z,9.40
2023-01-30T21:24:42.083Z,9.48
2023-01-30T21:27:09.431Z,9.51
2023-01-30T21:29:56.563Z,9.45
2023-01-30T21:32:23.663Z,9.44
2023-01-30T21:34:50.803Z,9.44
2023-01-30T21:37:37.851Z,9.49
2023-01-30T21:40:24.096Z,9.55
2023-01-30T21:43:09.961Z,9.58
2023-01-30T21:45:39.088Z,9.59
2023-01-30T21:48:06.580Z,9.73
2023-01-30T21:50:38.375Z,9.76
2023-01-30T21:53:11.470Z,9.47
2023-01-30T21:55:38.946Z,8.59
2023-01-30T21:58:06.518Z,8.26
2023-01-30T22:00:36.807Z,8.66
2023-01-30T22:03:04.033Z,8.91
2023-01-30T22:05:36.568Z,8.98
2023-01-30T22:08:05.234Z,9.12
2023-01-30T22:10:32.500Z,9.22
2023-01-30T22:13:02.025Z,9.34
2023-01-30T22:15:33.335Z,9.47
2023-01-30T22:18:00.442Z,9.65
2023-01-30T22:20:28.692Z,9.84
2023-01-30T22:22:55.822Z,9.47
2023-01-30T22:25:23.674Z,8.50
2023-01-30T22:27:50.844Z,8.15
2023-01-30T22:30:18.108Z,8.54
2023-01-30T22:32:45.565Z,8.94
2023-01-30T22:35:13.821Z,9.20
2023-01-30T22:37:41.093Z,9.33
2023-01-30T22:40:09.855Z,9.39
2023-01-30T22:42:37.665Z,9.46
2023-01-30T22:45:06.230Z,9.52
2023-01-30T22:47:34.000Z,8.95
2023-01-30T22:50:14.340Z,8.10
2023-01-30T22:52:42.530Z,8.00
2023-01-30T22:55:10.824Z,8.45
2023-01-30T22:57:39.585Z,8.83
2023-01-30T23:00:20.487Z,9.20
2023-01-30T23:02:48.393Z,9.13
2023-01-30T23:05:18.375Z,8.31
2023-01-30T23:07:46.371Z,7.73
2023-01-30T23:10:17.045Z,8.04
2023-01-30T23:13:02.846Z,8.51
2023-01-30T23:15:34.797Z,8.93
2023-01-30T23:18:20.533Z,9.18
2023-01-30T23:20:47.857Z,8.48
2023-01-30T23:23:15.038Z,7.73
2023-01-30T23:25:42.536Z,7.70
2023-01-30T23:28:11.401Z,8.28
2023-01-30T23:30:40.235Z,8.72
2023-01-30T23:33:08.837Z,8.47
2023-01-30T23:35:37.769Z,7.73
2023-01-30T23:38:21.596Z,7.29
2023-01-30T23:40:49.890Z,8.03
2023-01-30T23:43:20.874Z,8.73
2023-01-30T23:45:53.683Z,8.81
2023-01-30T23:48:20.947Z,7.99
2023-01-30T23:50:48.051Z,7.28
2023-01-30T23:53:15.814Z,7.23
2023-01-30T23:55:52.703Z,7.85
2023-01-30T23:58:23.557Z,8.41
